Список аэропортов
Фактическая погода:

26 июня, 23:30
Температура: +10°C (+10.0*)
Ветер: 0
Давление: *760 мм
разорв. обл.
1410 м
Время (МСК)Темп. СВетерВлажностьДавлениеОблачностьОсадки
21:00+14С, 1 м/с61%1014 гПаоблачно
22:00+14С, 1 м/с67%1014 гПаоблачно
23:00+14С, 1 м/с69%1014 гПаоблачносл. дождь
27 июня
00:00+13С, 2 м/с72%1014 гПаоблачносл. дождь
01:00+13С, 2 м/с80%1014 гПаоблачносл. дождь
02:00+12С, 1 м/с83%1014 гПаоблачно
03:00+12С, 1 м/с85%1014 гПаоблачно
04:00+12С, 1 м/с85%1014 гПаоблачно
05:00+13С, 2 м/с82%1014 гПаоблачно
06:00+15СВ, 1 м/с71%1014 гПаоблачно
07:00+17СВ, 2 м/с52%1013 гПас прояснениямисл. дождь
08:00+18В, 2 м/с48%1013 гПаоблачнодождь
09:00+17СВ, 2 м/с58%1013 гПас прояснениямидождь
10:00+18СВ, 2 м/с57%1013 гПаоблачнодождь
11:00+18СВ, 2 м/с52%1012 гПас прояснениямидождь
12:00+18В, 2 м/с65%1012 гПаоблачнодождь
13:00+17В, 2 м/с75%1012 гПаясносл. дождь
14:00+18В, 2 м/с62%1012 гПамалооблачнодождь
15:00+18В, 2 м/с58%1012 гПас прояснениями
16:00+19В, 2 м/с49%1011 гПаясно
17:00+19В, 2 м/с46%1011 гПаоблачно
18:00+18В, 2 м/с45%1011 гПамалооблачно
19:00+17В, 2 м/с48%1011 гПас прояснениями
20:00+14СВ, 1 м/с62%1012 гПас прояснениями
21:00+13СВ, 1 м/с72%1012 гПамалооблачно
22:00+12СВ, 1 м/с77%1012 гПамалооблачно
23:00+11СВ, 1 м/с81%1012 гПас прояснениями
28 июня
00:00+11С, 1 м/с82%1012 гПаоблачно
01:00+10С, 1 м/с88%1012 гПаоблачно
02:00+9С, 1 м/с94%1013 гПас прояснениями
03:00+9С, 2 м/с96%1013 гПас прояснениями
04:00+10С, 1 м/с92%1013 гПамалооблачно
05:00+13СВ, 1 м/с70%1013 гПаясно
06:00+16В, 2 м/с50%1013 гПамалооблачно
07:00+18В, 3 м/с39%1013 гПаясно
08:00+20В, 3 м/с35%1012 гПаясно
09:00+20В, 4 м/с32%1012 гПаясно
10:00+21В, 4 м/с30%1012 гПаясно
11:00+22В, 3 м/с28%1012 гПаясно
12:00+23В, 3 м/с26%1011 гПамалооблачно
13:00+23В, 3 м/с25%1011 гПаясно
14:00+23В, 3 м/с24%1011 гПаясно
15:00+23В, 3 м/с24%1011 гПаясно
16:00+23В, 3 м/с25%1011 гПамалооблачно
17:00+22В, 4 м/с26%1011 гПаясно
18:00+22В, 4 м/с28%1011 гПамалооблачно
19:00+20В, 3 м/с33%1012 гПаясно
20:00+18В, 2 м/с44%1012 гПаясно
21:00+16СВ, 2 м/с56%1012 гПас прояснениями